Akebono — JG5644 — position and weather

sailwx.info

Track history (hours):
 
Tides and Currents Weather Stations Pressure Air Temp Water Temp Dewpoint Dewpoint Depression Visibility Wind Speed Wind Dir Waves Ship Positions

Akebono

Last reported at 2014-Sep-19 03:33 UTC. Time now 2014-Sep-19 03:44 UTC.
Position N 35°27' E 139°39'.

Length 33 m; draft 4.4 m.

Type: Tug. MMSI: 431000233.

Date/timePositionNaut miles runAvg speedWind from/ knotsBaromVisibWave heightAir tempDewpointWater temp
2014-Sep-19 03:33N 35°27' E 139°39'1 0.9
2014-Sep-19 02:33N 35°27' E 139°40'1 1.4
2014-Sep-19 01:34N 35°26' E 139°42'0 0.4
2014-Sep-19 00:34N 35°26' E 139°42'0 0.0
2014-Sep-18 23:33N 35°26' E 139°42'6 5.9
2014-Sep-18 22:33N 35°31' E 139°46'6 6.1
2014-Sep-18 21:33N 35°27' E 139°40'0 0.0
2014-Sep-18 10:34N 35°27' E 139°40'1 0.8
2014-Sep-18 09:34N 35°27' E 139°41'1 0.5
2014-Sep-18 08:33N 35°28' E 139°41'1 0.5
2014-Sep-18 07:33N 35°27' E 139°41'1 1.3
2014-Sep-18 06:34N 35°26' E 139°41'0 0.0
2014-Sep-18 05:33N 35°26' E 139°41'4 3.7
2014-Sep-18 04:32N 35°29' E 139°44'1 0.7
2014-Sep-18 03:33N 35°28' E 139°45'1 0.6
2014-Sep-18 02:33N 35°29' E 139°45'1 0.6
2014-Sep-18 01:33N 35°29' E 139°45'0 0.4
2014-Sep-18 00:33N 35°28' E 139°45'4 4.4
2014-Sep-17 23:33N 35°27' E 139°39'0 0.0
2014-Sep-17 22:33N 35°27' E 139°39'0 0.0
2014-Sep-17 09:19N 35°27' E 139°39'1 1.1
2014-Sep-17 08:33N 35°26' E 139°40'1 1.2
2014-Sep-17 07:34N 35°28' E 139°40'1 1.5
2014-Sep-17 06:33N 35°26' E 139°41'1 1.3
2014-Sep-17 05:34N 35°27' E 139°39'0 0.0
2014-Sep-17 04:34N 35°27' E 139°39'3 3.4
2014-Sep-17 03:33N 35°24' E 139°40'2 1.7
2014-Sep-17 02:33N 35°24' E 139°38'2 2.3
2014-Sep-17 01:33N 35°23' E 139°41'4 4.2
2014-Sep-17 00:34N 35°27' E 139°42'0 0.5
2014-Sep-16 23:34N 35°27' E 139°43'4 4.0
2014-Sep-16 22:33N 35°29' E 139°47'2 2.0
2014-Sep-16 21:33N 35°31' E 139°46'6 6.4
2014-Sep-16 20:34N 35°27' E 139°40'0 0.0
2014-Sep-16 07:09N 35°27' E 139°39'0 0.0
2014-Sep-16 06:33N 35°27' E 139°39'0 0.0
2014-Sep-16 05:33N 35°27' E 139°39'0 0.0
2014-Sep-16 04:33N 35°27' E 139°39'0 0.0
2014-Sep-16 03:33N 35°27' E 139°39'1 1.3
2014-Sep-16 02:33N 35°26' E 139°41'1 0.7
2014-Sep-16 01:33N 35°26' E 139°42'0 0.0
2014-Sep-16 00:33N 35°26' E 139°42'2 2.3
2014-Sep-15 23:33N 35°24' E 139°41'2 1.6
2014-Sep-15 22:33N 35°23' E 139°42'5 4.9
2014-Sep-15 21:33N 35°27' E 139°40'1 0.1
2014-Sep-15 08:23N 35°27' E 139°41'0 0.3
2014-Sep-15 07:33N 35°27' E 139°41'1 0.8
2014-Sep-15 06:33N 35°27' E 139°42'0 0.0
2014-Sep-15 05:33N 35°27' E 139°42'0 0.0
2014-Sep-15 04:34N 35°27' E 139°42'2 2.4
2014-Sep-15 03:34N 35°28' E 139°44'1 1.2
2014-Sep-15 02:33N 35°27' E 139°44'2 1.6
2014-Sep-15 01:33N 35°28' E 139°45'0 0.1
2014-Sep-15 00:34N 35°28' E 139°45'1 0.9
2014-Sep-14 23:33N 35°29' E 139°46'5 5.2
2014-Sep-14 22:34N 35°27' E 139°40'2 2.0
2014-Sep-14 21:33N 35°26' E 139°42'3 2.7
2014-Sep-14 20:33N 35°27' E 139°39'0 0.0
2014-Sep-12 22:33N 35°27' E 139°40'2 2.3
2014-Sep-12 21:33N 35°28' E 139°42'1 1.3
2014-Sep-12 20:33N 35°28' E 139°44'0 0.0
2014-Sep-12 19:33N 35°28' E 139°44'0 0.0
2014-Sep-12 18:33N 35°28' E 139°44'0 0.0
2014-Sep-12 17:33N 35°28' E 139°44'1 1.1
2014-Sep-12 16:33N 35°29' E 139°44'0 0.0
2014-Sep-12 15:33N 35°29' E 139°44'2 2.0
2014-Sep-12 14:33N 35°27' E 139°46'2 1.9
2014-Sep-12 13:33N 35°28' E 139°44'0 0.0
2014-Sep-12 12:33N 35°28' E 139°44'0 0.0
2014-Sep-12 11:34N 35°28' E 139°44'1 1.1
2014-Sep-12 10:33N 35°27' E 139°43'1 1.2
2014-Sep-12 09:33N 35°26' E 139°43'2 2.5
2014-Sep-12 08:33N 35°27' E 139°40'2 2.4
2014-Sep-12 07:33N 35°26' E 139°43'3 2.8
2014-Sep-12 06:34N 35°27' E 139°40'0 0.3
2014-Sep-12 05:33N 35°27' E 139°39'0 0.0
2014-Sep-12 04:33N 35°27' E 139°39'0 0.0
2014-Sep-12 03:33N 35°27' E 139°39'0 0.0
2014-Sep-12 02:33N 35°27' E 139°39'0 0.0
2014-Sep-12 01:33N 35°27' E 139°39'0 0.0
2014-Sep-12 00:33N 35°27' E 139°39'0 0.0
2014-Sep-11 23:33N 35°27' E 139°39'0 0.0
2014-Sep-11 22:33N 35°27' E 139°39'0 0.0
2014-Sep-11 21:33N 35°27' E 139°39'0 0.0
2014-Sep-11 20:33N 35°27' E 139°39'0 0.0
2014-Sep-11 07:11N 35°27' E 139°39'0 0.0
2014-Sep-11 06:33N 35°27' E 139°39'0 0.0
2014-Sep-11 05:33N 35°27' E 139°39'0 0.0
2014-Sep-11 04:33N 35°27' E 139°39'0 0.0
2014-Sep-11 03:33N 35°27' E 139°39'0 0.0
2014-Sep-11 02:33N 35°27' E 139°39'0 0.1
2014-Sep-11 01:33N 35°27' E 139°39'1 1.3
2014-Sep-11 00:33N 35°27' E 139°41'2 2.0
2014-Sep-10 23:33N 35°28' E 139°39'1 1.0
2014-Sep-10 22:33N 35°27' E 139°39'0 0.0
2014-Sep-10 07:10N 35°27' E 139°39'0 0.0
2014-Sep-10 06:33N 35°27' E 139°39'0 0.0
2014-Sep-10 05:33N 35°27' E 139°39'4 4.1
2014-Sep-10 04:33N 35°28' E 139°44'1 0.5
2014-Sep-10 03:33N 35°28' E 139°44'0 0.0
2014-Sep-10 02:33N 35°28' E 139°44'3 3.2
2014-Sep-10 01:33N 35°25' E 139°42'3 3.4
2014-Sep-10 00:33N 35°24' E 139°38'1 1.3
2014-Sep-09 23:33N 35°23' E 139°40'4 4.3
2014-Sep-09 22:33N 35°27' E 139°43'1 1.2
2014-Sep-09 21:33N 35°28' E 139°42'2 2.2
2014-Sep-09 20:33N 35°27' E 139°40'0 0.0
2014-Sep-09 07:34N 35°27' E 139°39'0 0.0
2014-Sep-09 06:33N 35°27' E 139°39'0 0.0
2014-Sep-09 05:33N 35°27' E 139°39'0 0.0
2014-Sep-09 04:33N 35°27' E 139°39'3 3.5
2014-Sep-09 03:33N 35°24' E 139°40'  
Track history (hours):
 
Tides and Currents Weather Stations Pressure Air Temp Water Temp Dewpoint Dewpoint Depression Visibility Wind Speed Wind Dir Waves Ship Positions

Akebono

Last reported at 2014-Sep-19 03:33 UTC. Time now 2014-Sep-19 03:44 UTC.
Position N 35°27' E 139°39'.

Length 33 m; draft 4.4 m.

Type: Tug. MMSI: 431000233.

Date/timePositionNaut miles runAvg speedWind from/ knotsBaromVisibWave heightAir tempDewpointWater temp
2014-Sep-19 03:33N 35°27' E 139°39'1 0.9
2014-Sep-19 02:33N 35°27' E 139°40'1 1.4
2014-Sep-19 01:34N 35°26' E 139°42'0 0.4
2014-Sep-19 00:34N 35°26' E 139°42'0 0.0
2014-Sep-18 23:33N 35°26' E 139°42'6 5.9
2014-Sep-18 22:33N 35°31' E 139°46'6 6.1
2014-Sep-18 21:33N 35°27' E 139°40'0 0.0
2014-Sep-18 10:34N 35°27' E 139°40'1 0.8
2014-Sep-18 09:34N 35°27' E 139°41'1 0.5
2014-Sep-18 08:33N 35°28' E 139°41'1 0.5
2014-Sep-18 07:33N 35°27' E 139°41'1 1.3
2014-Sep-18 06:34N 35°26' E 139°41'0 0.0
2014-Sep-18 05:33N 35°26' E 139°41'4 3.7
2014-Sep-18 04:32N 35°29' E 139°44'1 0.7
2014-Sep-18 03:33N 35°28' E 139°45'1 0.6
2014-Sep-18 02:33N 35°29' E 139°45'1 0.6
2014-Sep-18 01:33N 35°29' E 139°45'0 0.4
2014-Sep-18 00:33N 35°28' E 139°45'4 4.4
2014-Sep-17 23:33N 35°27' E 139°39'0 0.0
2014-Sep-17 22:33N 35°27' E 139°39'0 0.0
2014-Sep-17 09:19N 35°27' E 139°39'1 1.1
2014-Sep-17 08:33N 35°26' E 139°40'1 1.2
2014-Sep-17 07:34N 35°28' E 139°40'1 1.5
2014-Sep-17 06:33N 35°26' E 139°41'1 1.3
2014-Sep-17 05:34N 35°27' E 139°39'0 0.0
2014-Sep-17 04:34N 35°27' E 139°39'3 3.4
2014-Sep-17 03:33N 35°24' E 139°40'2 1.7
2014-Sep-17 02:33N 35°24' E 139°38'2 2.3
2014-Sep-17 01:33N 35°23' E 139°41'4 4.2
2014-Sep-17 00:34N 35°27' E 139°42'0 0.5
2014-Sep-16 23:34N 35°27' E 139°43'4 4.0
2014-Sep-16 22:33N 35°29' E 139°47'2 2.0
2014-Sep-16 21:33N 35°31' E 139°46'6 6.4
2014-Sep-16 20:34N 35°27' E 139°40'0 0.0
2014-Sep-16 07:09N 35°27' E 139°39'0 0.0
2014-Sep-16 06:33N 35°27' E 139°39'0 0.0
2014-Sep-16 05:33N 35°27' E 139°39'0 0.0
2014-Sep-16 04:33N 35°27' E 139°39'0 0.0
2014-Sep-16 03:33N 35°27' E 139°39'1 1.3
2014-Sep-16 02:33N 35°26' E 139°41'1 0.7
2014-Sep-16 01:33N 35°26' E 139°42'0 0.0
2014-Sep-16 00:33N 35°26' E 139°42'2 2.3
2014-Sep-15 23:33N 35°24' E 139°41'2 1.6
2014-Sep-15 22:33N 35°23' E 139°42'5 4.9
2014-Sep-15 21:33N 35°27' E 139°40'1 0.1
2014-Sep-15 08:23N 35°27' E 139°41'0 0.3
2014-Sep-15 07:33N 35°27' E 139°41'1 0.8
2014-Sep-15 06:33N 35°27' E 139°42'0 0.0
2014-Sep-15 05:33N 35°27' E 139°42'0 0.0
2014-Sep-15 04:34N 35°27' E 139°42'2 2.4
2014-Sep-15 03:34N 35°28' E 139°44'1 1.2
2014-Sep-15 02:33N 35°27' E 139°44'2 1.6
2014-Sep-15 01:33N 35°28' E 139°45'0 0.1
2014-Sep-15 00:34N 35°28' E 139°45'1 0.9
2014-Sep-14 23:33N 35°29' E 139°46'5 5.2
2014-Sep-14 22:34N 35°27' E 139°40'2 2.0
2014-Sep-14 21:33N 35°26' E 139°42'3 2.7
2014-Sep-14 20:33N 35°27' E 139°39'0 0.0
2014-Sep-12 22:33N 35°27' E 139°40'2 2.3
2014-Sep-12 21:33N 35°28' E 139°42'1 1.3
2014-Sep-12 20:33N 35°28' E 139°44'0 0.0
2014-Sep-12 19:33N 35°28' E 139°44'0 0.0
2014-Sep-12 18:33N 35°28' E 139°44'0 0.0
2014-Sep-12 17:33N 35°28' E 139°44'1 1.1
2014-Sep-12 16:33N 35°29' E 139°44'0 0.0
2014-Sep-12 15:33N 35°29' E 139°44'2 2.0
2014-Sep-12 14:33N 35°27' E 139°46'2 1.9
2014-Sep-12 13:33N 35°28' E 139°44'0 0.0
2014-Sep-12 12:33N 35°28' E 139°44'0 0.0
2014-Sep-12 11:34N 35°28' E 139°44'1 1.1
2014-Sep-12 10:33N 35°27' E 139°43'1 1.2
2014-Sep-12 09:33N 35°26' E 139°43'2 2.5
2014-Sep-12 08:33N 35°27' E 139°40'2 2.4
2014-Sep-12 07:33N 35°26' E 139°43'3 2.8
2014-Sep-12 06:34N 35°27' E 139°40'0 0.3
2014-Sep-12 05:33N 35°27' E 139°39'0 0.0
2014-Sep-12 04:33N 35°27' E 139°39'0 0.0
2014-Sep-12 03:33N 35°27' E 139°39'0 0.0
2014-Sep-12 02:33N 35°27' E 139°39'0 0.0
2014-Sep-12 01:33N 35°27' E 139°39'0 0.0
2014-Sep-12 00:33N 35°27' E 139°39'0 0.0
2014-Sep-11 23:33N 35°27' E 139°39'0 0.0
2014-Sep-11 22:33N 35°27' E 139°39'0 0.0
2014-Sep-11 21:33N 35°27' E 139°39'0 0.0
2014-Sep-11 20:33N 35°27' E 139°39'0 0.0
2014-Sep-11 07:11N 35°27' E 139°39'0 0.0
2014-Sep-11 06:33N 35°27' E 139°39'0 0.0
2014-Sep-11 05:33N 35°27' E 139°39'0 0.0
2014-Sep-11 04:33N 35°27' E 139°39'0 0.0
2014-Sep-11 03:33N 35°27' E 139°39'0 0.0
2014-Sep-11 02:33N 35°27' E 139°39'0 0.1
2014-Sep-11 01:33N 35°27' E 139°39'1 1.3
2014-Sep-11 00:33N 35°27' E 139°41'2 2.0
2014-Sep-10 23:33N 35°28' E 139°39'1 1.0
2014-Sep-10 22:33N 35°27' E 139°39'0 0.0
2014-Sep-10 07:10N 35°27' E 139°39'0 0.0
2014-Sep-10 06:33N 35°27' E 139°39'0 0.0
2014-Sep-10 05:33N 35°27' E 139°39'4 4.1
2014-Sep-10 04:33N 35°28' E 139°44'1 0.5
2014-Sep-10 03:33N 35°28' E 139°44'0 0.0
2014-Sep-10 02:33N 35°28' E 139°44'3 3.2
2014-Sep-10 01:33N 35°25' E 139°42'3 3.4
2014-Sep-10 00:33N 35°24' E 139°38'1 1.3
2014-Sep-09 23:33N 35°23' E 139°40'4 4.3
2014-Sep-09 22:33N 35°27' E 139°43'1 1.2
2014-Sep-09 21:33N 35°28' E 139°42'2 2.2
2014-Sep-09 20:33N 35°27' E 139°40'0 0.0
2014-Sep-09 07:34N 35°27' E 139°39'0 0.0
2014-Sep-09 06:33N 35°27' E 139°39'0 0.0
2014-Sep-09 05:33N 35°27' E 139°39'0 0.0
2014-Sep-09 04:33N 35°27' E 139°39'3 3.5
2014-Sep-09 03:33N 35°24' E 139°40'  

Dump ship's entire track history